Time;durP1;ratioP1;P1;durP2;ratioP2;P2;SDS_P1;SDS_P2;PMS_P1;PMS_P2;Temp;Humidity;BMP_temperature;BMP_pressure;BME280_temperature;BME280_humidity;BME280_pressure;Samples;Min_cycle;Max_cycle;Signal;HPM_P1;HPM_P2
2021/08/02 00:00:55;;;;;;;3.50;2.80;;;13.90;99.90;;;;;;5016797;28;20042;-80
2021/08/02 00:04:05;;;;;;;3.92;3.13;;;13.80;99.90;;;;;;5028283;28;20053;-80
2021/08/02 00:06:52;;;;;;;3.55;2.50;;;13.80;99.90;;;;;;4995048;28;20115;-80
2021/08/02 00:09:22;;;;;;;;;;;13.80;99.90;;;;;;5011799;28;20033;-80
2021/08/02 00:11:57;;;;;;;3.13;2.78;;;13.80;99.90;;;;;;5000805;28;19909;-80
2021/08/02 00:14:24;;;;;;;3.25;2.83;;;13.70;99.90;;;;;;5011348;28;20501;-80
2021/08/02 00:16:51;;;;;;;5.22;3.00;;;13.70;99.90;;;;;;5011623;28;20030;-80
2021/08/02 00:19:18;;;;;;;3.03;2.60;;;13.70;99.90;;;;;;5011180;28;20061;-80
2021/08/02 00:21:44;;;;;;;3.58;3.20;;;13.70;99.90;;;;;;5012962;28;20096;-80
2021/08/02 00:24:11;;;;;;;3.85;3.55;;;13.70;99.90;;;;;;5013062;28;20057;-80
2021/08/02 00:26:39;;;;;;;4.22;3.22;;;13.70;99.90;;;;;;5011063;28;20026;-80
2021/08/02 00:29:06;;;;;;;3.53;2.72;;;13.60;99.90;;;;;;5027351;28;20128;-80
2021/08/02 00:31:32;;;;;;;4.15;3.17;;;13.70;99.90;;;;;;5012286;28;20041;-80
2021/08/02 00:33:57;;;;;;;6.07;3.22;;;13.60;99.90;;;;;;5011199;28;20034;-80
2021/08/02 00:36:42;;;;;;;3.80;3.00;;;13.70;99.90;;;;;;5011034;28;20129;-80
2021/08/02 00:39:23;;;;;;;4.35;2.63;;;13.70;99.90;;;;;;4998321;28;20046;-80
2021/08/02 00:42:31;;;;;;;6.43;3.45;;;13.70;99.90;;;;;;4995141;28;20157;-80
2021/08/02 00:45:11;;;;;;;4.82;3.00;;;13.60;99.90;;;;;;4998884;28;20081;-80
2021/08/02 00:48:09;;;;;;;3.92;3.00;;;13.60;99.90;;;;;;4990446;28;20026;-80
2021/08/02 00:50:48;;;;;;;4.60;3.00;;;13.60;99.90;;;;;;5007057;28;20114;-80
2021/08/02 00:53:20;;;;;;;4.18;3.20;;;13.60;99.90;;;;;;4991227;28;20370;-80
2021/08/02 00:55:56;;;;;;;3.20;2.90;;;13.60;99.90;;;;;;4999704;28;20037;-80
2021/08/02 00:58:24;;;;;;;3.35;3.05;;;13.60;99.90;;;;;;5009823;28;20030;-80
2021/08/02 01:00:51;;;;;;;4.55;3.70;;;13.60;99.90;;;;;;5024037;28;20036;-80
2021/08/02 01:03:17;;;;;;;3.45;2.90;;;13.60;99.90;;;;;;5025631;28;20129;-81
2021/08/02 01:05:48;;;;;;;5.93;3.05;;;13.60;99.90;;;;;;5010472;28;20029;-80
2021/08/02 01:08:30;;;;;;;5.95;3.28;;;13.70;99.90;;;;;;5027101;28;20038;-80
2021/08/02 01:11:01;;;;;;;5.50;3.00;;;13.60;99.90;;;;;;5010077;28;20038;-80
2021/08/02 01:13:31;;;;;;;4.53;3.30;;;13.60;99.90;;;;;;4982887;28;20045;-80
2021/08/02 01:16:01;;;;;;;4.18;2.80;;;13.60;99.90;;;;;;4991140;28;20480;-80
2021/08/02 01:18:31;;;;;;;4.75;3.50;;;13.60;99.90;;;;;;4992206;28;20125;-80
2021/08/02 01:21:05;;;;;;;4.63;3.15;;;13.70;99.90;;;;;;5012848;28;20026;-80
2021/08/02 01:23:32;;;;;;;3.60;3.22;;;13.70;99.90;;;;;;4990980;28;20041;-80
2021/08/02 01:25:58;;;;;;;3.40;2.75;;;13.70;99.90;;;;;;4992280;28;20026;-80
2021/08/02 01:28:26;;;;;;;4.10;3.13;;;13.70;99.90;;;;;;4990889;28;20058;-79
2021/08/02 01:30:57;;;;;;;4.57;3.58;;;13.70;99.90;;;;;;4974331;28;20089;-80
2021/08/02 01:33:33;;;;;;;2.95;2.65;;;13.60;99.90;;;;;;4992496;28;20185;-80
2021/08/02 01:36:07;;;;;;;3.92;2.95;;;13.60;99.90;;;;;;4991041;28;20404;-80
2021/08/02 01:38:36;;;;;;;3.25;2.95;;;13.60;99.90;;;;;;4975366;28;20130;-80
2021/08/02 01:41:07;;;;;;;4.80;3.55;;;13.60;99.90;;;;;;4974837;28;20038;-80
2021/08/02 01:43:38;;;;;;;4.40;3.00;;;13.60;99.90;;;;;;5015595;28;20105;-80
2021/08/02 01:46:43;;;;;;;4.10;3.22;;;13.60;99.90;;;;;;5010528;28;20038;-80
2021/08/02 01:49:23;;;;;;;4.03;2.78;;;13.70;99.90;;;;;;4998305;28;20540;-80
2021/08/02 01:51:53;;;;;;;4.80;3.83;;;13.60;99.90;;;;;;4986310;28;20069;-79
2021/08/02 01:54:50;;;;;;;4.05;3.10;;;13.60;99.90;;;;;;5010683;28;20408;-80
2021/08/02 01:57:23;;;;;;;4.70;3.08;;;13.60;99.90;;;;;;4994049;28;20030;-80
2021/08/02 02:00:23;;;;;;;4.57;3.30;;;13.50;99.90;;;;;;4990717;28;20403;-80
2021/08/02 02:03:03;;;;;;;4.22;3.22;;;13.50;99.90;;;;;;5007274;28;20076;-80
2021/08/02 02:05:44;;;;;;;4.50;3.42;;;13.50;99.90;;;;;;5005603;28;20129;-80
2021/08/02 02:08:16;;;;;;;4.90;3.47;;;13.50;99.90;;;;;;5007304;28;20038;-79
2021/08/02 02:10:48;;;;;;;4.07;3.40;;;13.50;99.90;;;;;;5015716;28;20506;-80
2021/08/02 02:13:20;;;;;;;3.28;2.97;;;13.50;99.90;;;;;;4990788;28;20569;-79
2021/08/02 02:15:51;;;;;;;5.38;3.70;;;13.50;99.90;;;;;;5023897;28;20065;-80
2021/08/02 02:18:19;;;;;;;3.72;3.30;;;13.40;99.90;;;;;;4994601;28;20026;-80
2021/08/02 02:20:49;;;;;;;3.85;3.45;;;13.50;99.90;;;;;;5026605;28;20076;-80
2021/08/02 02:23:17;;;;;;;4.50;3.25;;;13.50;99.90;;;;;;4996233;28;20488;-80
2021/08/02 02:25:43;;;;;;;4.32;3.45;;;13.40;99.90;;;;;;5012213;28;20026;-80
2021/08/02 02:28:17;;;;;;;4.40;3.55;;;13.50;99.90;;;;;;5013437;28;20034;-78
2021/08/02 02:30:45;;;;;;;3.80;3.50;;;13.50;99.90;;;;;;5013867;28;20076;-78
2021/08/02 02:33:15;;;;;;;4.38;3.67;;;13.50;99.90;;;;;;5013357;28;20052;-78
2021/08/02 02:35:49;;;;;;;4.18;3.72;;;13.50;99.90;;;;;;5013876;28;20030;-78
2021/08/02 02:38:17;;;;;;;4.45;3.40;;;13.50;99.90;;;;;;5005611;28;20084;-78
2021/08/02 02:40:46;;;;;;;5.05;3.95;;;13.60;99.90;;;;;;4994400;28;20021;-78
2021/08/02 02:43:13;;;;;;;10.32;3.47;;;13.60;99.90;;;;;;5015284;28;20373;-78
2021/08/02 02:45:42;;;;;;;6.20;3.50;;;13.60;99.90;;;;;;5013878;28;20061;-78
2021/08/02 02:48:09;;;;;;;4.60;3.05;;;13.60;99.90;;;;;;5012704;28;20092;-78
2021/08/02 02:50:35;;;;;;;3.97;3.55;;;13.60;99.90;;;;;;5014474;28;20118;-79
2021/08/02 02:53:04;;;;;;;3.60;3.25;;;13.70;99.90;;;;;;5014348;28;20046;-79
2021/08/02 02:55:34;;;;;;;4.15;3.25;;;13.70;99.90;;;;;;5014595;28;20500;-79
2021/08/02 02:58:04;;;;;;;4.35;3.05;;;13.70;99.90;;;;;;5029244;28;20049;-79
2021/08/02 03:00:32;;;;;;;3.90;3.50;;;13.70;99.90;;;;;;5012167;28;20030;-79
2021/08/02 03:03:00;;;;;;;3.83;3.10;;;13.70;99.90;;;;;;5012611;28;20030;-79
2021/08/02 03:05:29;;;;;;;6.80;3.83;;;13.80;99.90;;;;;;5012978;28;20041;-79
2021/08/02 03:07:59;;;;;;;4.18;3.35;;;13.80;99.90;;;;;;5012307;28;20030;-79
2021/08/02 03:10:27;;;;;;;4.30;3.75;;;13.80;99.90;;;;;;5011989;28;20037;-79
2021/08/02 03:12:56;;;;;;;4.90;3.35;;;13.90;99.90;;;;;;5001468;28;20034;-79
2021/08/02 03:15:22;;;;;;;4.18;3.35;;;13.90;99.90;;;;;;5012608;28;20107;-79
2021/08/02 03:17:48;;;;;;;5.05;3.22;;;14.00;99.90;;;;;;5028551;28;20033;-79
2021/08/02 03:20:15;;;;;;;4.25;3.20;;;13.90;99.90;;;;;;5013586;28;20404;-79
2021/08/02 03:22:52;;;;;;;3.38;2.92;;;13.90;99.90;;;;;;5027993;28;20057;-79
2021/08/02 03:25:36;;;;;;;3.15;2.85;;;13.80;99.90;;;;;;5008811;28;20505;-79
2021/08/02 03:28:24;;;;;;;3.53;2.72;;;13.90;99.90;;;;;;4992332;28;20130;-79
2021/08/02 03:30:55;;;;;;;5.03;3.00;;;13.80;99.90;;;;;;5010469;28;20034;-79
2021/08/02 03:33:30;;;;;;;3.22;2.58;;;13.80;99.90;;;;;;5012048;28;20412;-79
2021/08/02 03:35:58;;;;;;;3.13;2.55;;;13.70;99.90;;;;;;4996343;28;20038;-79
2021/08/02 03:38:27;;;;;;;3.20;2.83;;;13.70;99.90;;;;;;5012921;28;20469;-79
2021/08/02 03:40:53;;;;;;;3.15;2.78;;;13.70;99.90;;;;;;5011454;28;20033;-79
2021/08/02 03:43:20;;;;;;;4.75;2.78;;;13.70;99.90;;;;;;5012027;28;20532;-79
2021/08/02 03:45:46;;;;;;;4.90;2.85;;;13.70;99.90;;;;;;5012101;28;20038;-79
2021/08/02 03:48:12;;;;;;;3.35;2.50;;;13.70;99.90;;;;;;5010725;28;20038;-80
2021/08/02 03:50:38;;;;;;;2.95;2.60;;;13.70;99.90;;;;;;5002004;28;20096;-79
2021/08/02 03:53:05;;;;;;;3.22;2.92;;;13.70;99.90;;;;;;5003256;28;20046;-79
2021/08/02 03:55:32;;;;;;;4.22;2.97;;;13.70;99.90;;;;;;5012056;28;20230;-79
2021/08/02 03:57:58;;;;;;;2.65;2.45;;;13.60;99.90;;;;;;5012041;28;20041;-79
2021/08/02 04:00:24;;;;;;;4.75;2.67;;;13.60;99.90;;;;;;5011389;28;20526;-79
2021/08/02 04:02:51;;;;;;;4.00;2.85;;;13.60;99.90;;;;;;5011340;28;20038;-79
2021/08/02 04:05:18;;;;;;;4.00;3.03;;;13.60;99.90;;;;;;5011418;28;20554;-79
2021/08/02 04:07:46;;;;;;;4.47;2.83;;;13.60;99.90;;;;;;5009703;28;20456;-79
2021/08/02 04:10:13;;;;;;;5.32;3.88;;;13.60;99.90;;;;;;4991457;28;20031;-79
2021/08/02 04:12:39;;;;;;;6.95;3.83;;;13.60;99.90;;;;;;4992134;28;20053;-79
2021/08/02 04:15:10;;;;;;;4.93;4.15;;;13.60;99.90;;;;;;4975717;28;20030;-79
2021/08/02 04:17:36;;;;;;;5.95;4.10;;;13.60;99.90;;;;;;4993382;28;20041;-79
2021/08/02 04:20:04;;;;;;;5.55;3.83;;;13.60;99.90;;;;;;5026190;28;20045;-79
2021/08/02 04:22:30;;;;;;;5.97;3.85;;;13.60;99.90;;;;;;5012492;28;20030;-79
2021/08/02 04:24:56;;;;;;;8.40;4.60;;;13.60;99.90;;;;;;5028087;28;20392;-79
2021/08/02 04:27:23;;;;;;;5.82;4.45;;;13.60;99.90;;;;;;5012712;28;20107;-79
2021/08/02 04:29:49;;;;;;;5.43;4.20;;;13.60;99.90;;;;;;5010600;28;20068;-79
2021/08/02 04:32:15;;;;;;;9.10;4.85;;;13.60;99.90;;;;;;4988304;28;20045;-79
2021/08/02 04:34:40;;;;;;;5.75;4.32;;;13.70;99.90;;;;;;4992875;28;20040;-79
2021/08/02 04:37:06;;;;;;;6.40;4.03;;;13.70;99.90;;;;;;4963408;28;20034;-79
2021/08/02 04:39:32;;;;;;;6.32;4.30;;;13.70;99.90;;;;;;4993310;28;20038;-80
2021/08/02 04:41:58;;;;;;;6.78;4.63;;;13.70;99.90;;;;;;5012275;28;20435;-79
2021/08/02 04:44:24;;;;;;;6.10;3.95;;;13.80;99.90;;;;;;5011858;28;20404;-79
2021/08/02 04:46:49;;;;;;;4.90;3.83;;;13.80;99.90;;;;;;5027336;28;20029;-79
2021/08/02 04:49:15;;;;;;;4.80;3.78;;;13.80;99.90;;;;;;5009986;28;20037;-80
2021/08/02 04:51:43;;;;;;;3.83;3.42;;;13.80;99.90;;;;;;5010631;28;20033;-79
2021/08/02 04:54:09;;;;;;;4.05;3.15;;;13.80;99.90;;;;;;4999176;28;20042;-79
2021/08/02 04:56:34;;;;;;;4.82;4.10;;;13.80;99.90;;;;;;5003301;28;20030;-80
2021/08/02 04:59:00;;;;;;;5.70;3.83;;;13.90;99.90;;;;;;5010546;28;20452;-80
2021/08/02 05:01:27;;;;;;;6.47;3.35;;;13.90;99.90;;;;;;5027510;28;20095;-79
2021/08/02 05:03:53;;;;;;;6.70;3.45;;;14.00;99.90;;;;;;5012215;28;20026;-79
2021/08/02 05:06:18;;;;;;;3.90;2.83;;;14.00;99.90;;;;;;5027576;28;20034;-79
2021/08/02 05:08:44;;;;;;;3.75;3.05;;;14.00;99.90;;;;;;5002631;28;20081;-79
2021/08/02 05:11:10;;;;;;;4.40;3.03;;;14.00;99.90;;;;;;5016040;28;20030;-79
2021/08/02 05:13:36;;;;;;;4.20;2.80;;;14.10;99.90;;;;;;5010424;28;20030;-79
2021/08/02 05:16:05;;;;;;;4.97;2.95;;;14.10;99.90;;;;;;5010860;28;20088;-79
2021/08/02 05:18:30;;;;;;;3.42;2.78;;;14.20;99.90;;;;;;5012017;28;20480;-79
2021/08/02 05:20:56;;;;;;;3.75;2.63;;;14.30;99.90;;;;;;4993802;28;20124;-79
2021/08/02 05:23:22;;;;;;;3.65;2.70;;;14.30;99.90;;;;;;4994330;28;20136;-79
2021/08/02 05:25:48;;;;;;;3.42;2.60;;;14.40;99.90;;;;;;5010734;28;20026;-79
2021/08/02 05:28:13;;;;;;;2.88;2.58;;;14.40;99.90;;;;;;5012060;28;20038;-79
2021/08/02 05:30:39;;;;;;;3.15;2.72;;;14.40;99.90;;;;;;4986889;28;20042;-79
2021/08/02 05:33:05;;;;;;;5.32;2.65;;;14.40;99.90;;;;;;4990860;28;20030;-79
2021/08/02 05:35:31;;;;;;;6.07;3.20;;;14.40;99.90;;;;;;4991365;28;20037;-79
2021/08/02 05:37:56;;;;;;;3.45;2.47;;;14.40;99.90;;;;;;5006287;28;20042;-79
2021/08/02 05:40:22;;;;;;;3.17;2.70;;;14.50;99.90;;;;;;4995943;28;20027;-79
2021/08/02 05:42:48;;;;;;;3.05;2.38;;;14.60;99.90;;;;;;5010598;28;20038;-79
2021/08/02 05:45:14;;;;;;;3.05;2.10;;;14.70;99.90;;;;;;5026730;28;20034;-80
2021/08/02 05:47:40;;;;;;;3.75;2.15;;;14.70;99.90;;;;;;5007694;28;20062;-79
2021/08/02 05:50:07;;;;;;;2.58;2.28;;;14.70;99.90;;;;;;4990210;28;20038;-79
2021/08/02 05:52:32;;;;;;;2.20;2.00;;;14.70;99.90;;;;;;5002982;28;20060;-79
2021/08/02 05:54:59;;;;;;;4.30;2.38;;;14.80;99.90;;;;;;5014269;28;20038;-79
2021/08/02 05:57:25;;;;;;;2.47;2.15;;;14.90;99.90;;;;;;4997925;28;20042;-79
2021/08/02 05:59:50;;;;;;;2.53;2.00;;;14.90;99.90;;;;;;5014576;28;20045;-79
2021/08/02 06:02:17;;;;;;;2.13;1.98;;;15.00;99.90;;;;;;4997818;28;20060;-79
2021/08/02 06:04:43;;;;;;;3.38;2.00;;;15.10;99.90;;;;;;5014086;28;20523;-79
2021/08/02 06:07:09;;;;;;;2.05;1.73;;;15.20;99.90;;;;;;5030545;28;20074;-79
2021/08/02 06:09:34;;;;;;;2.83;1.85;;;15.30;99.90;;;;;;5014508;28;20137;-79
2021/08/02 06:12:01;;;;;;;1.85;1.60;;;15.40;99.90;;;;;;5001007;28;20112;-79
2021/08/02 06:14:27;;;;;;;1.63;1.52;;;15.60;99.90;;;;;;4997323;28;20049;-79
2021/08/02 06:16:53;;;;;;;1.95;1.48;;;16.00;99.90;;;;;;4994355;28;20026;-79
2021/08/02 06:19:19;;;;;;;2.47;2.17;;;16.20;99.90;;;;;;5004249;28;20462;-79
2021/08/02 06:21:45;;;;;;;1.90;1.67;;;16.30;99.90;;;;;;5008076;28;20034;-79
2021/08/02 06:24:10;;;;;;;2.90;1.67;;;16.40;99.90;;;;;;5010278;28;20125;-80
2021/08/02 06:26:37;;;;;;;3.63;1.70;;;16.30;99.90;;;;;;5029912;28;20022;-80
2021/08/02 06:29:04;;;;;;;2.00;1.80;;;16.30;99.90;;;;;;5014630;28;20494;-80
2021/08/02 06:31:30;;;;;;;6.40;2.17;;;16.40;99.90;;;;;;4997743;28;20037;-80
2021/08/02 06:33:55;;;;;;;2.38;1.65;;;16.40;99.90;;;;;;5004305;28;20034;-80
2021/08/02 06:36:21;;;;;;;2.95;1.73;;;16.60;99.90;;;;;;5005621;28;20116;-80
2021/08/02 06:38:48;;;;;;;1.70;1.60;;;16.80;99.90;;;;;;5029071;28;20045;-80
2021/08/02 06:41:14;;;;;;;3.42;1.63;;;16.90;99.90;;;;;;5014770;28;20022;-80
2021/08/02 06:43:41;;;;;;;2.00;1.60;;;17.20;99.90;;;;;;5005752;28;20071;-79
2021/08/02 06:46:07;;;;;;;4.32;1.67;;;17.40;99.90;;;;;;5009560;28;20033;-80
2021/08/02 06:48:34;;;;;;;1.70;1.60;;;17.60;99.90;;;;;;5013986;28;20850;-80
2021/08/02 06:51:00;;;;;;;4.03;1.63;;;17.90;99.90;;;;;;4997286;28;20044;-80
2021/08/02 06:53:25;;;;;;;1.38;1.27;;;17.90;99.90;;;;;;5016097;28;20104;-80
2021/08/02 06:55:51;;;;;;;1.52;1.42;;;17.80;99.90;;;;;;4997944;28;20114;-81
2021/08/02 06:58:17;;;;;;;4.00;1.30;;;17.70;99.90;;;;;;5014923;28;20037;-80
2021/08/02 07:00:43;;;;;;;2.63;1.40;;;17.60;99.90;;;;;;5020812;28;20026;-80
2021/08/02 07:03:09;;;;;;;2.03;1.13;;;17.40;99.90;;;;;;4996784;28;20036;-81
2021/08/02 07:05:35;;;;;;;1.20;1.10;;;17.30;99.90;;;;;;4997830;28;20088;-81
2021/08/02 07:08:01;;;;;;;2.83;1.52;;;17.30;99.90;;;;;;5015684;28;20033;-80
2021/08/02 07:10:27;;;;;;;1.85;1.40;;;17.50;99.90;;;;;;4997220;28;20084;-80
2021/08/02 07:12:53;;;;;;;1.63;1.20;;;17.70;99.90;;;;;;5021924;28;20053;-80
2021/08/02 07:15:18;;;;;;;1.20;1.10;;;18.10;99.90;;;;;;5013250;28;20037;-80
2021/08/02 07:17:44;;;;;;;1.85;1.20;;;18.50;99.90;;;;;;5014769;28;20464;-81
2021/08/02 07:20:10;;;;;;;1.55;1.30;;;19.10;99.90;;;;;;4980706;28;20042;-81
2021/08/02 07:22:36;;;;;;;4.00;1.33;;;19.50;99.90;;;;;;5007082;28;20053;-81
2021/08/02 07:25:03;;;;;;;1.30;1.00;;;19.70;99.90;;;;;;5020070;28;20515;-81
2021/08/02 07:27:28;;;;;;;1.20;1.02;;;20.00;99.90;;;;;;4989320;28;20042;-81
2021/08/02 07:29:54;;;;;;;1.25;1.15;;;20.30;99.90;;;;;;5019277;28;20034;-81
2021/08/02 07:32:20;;;;;;;2.95;1.50;;;20.40;99.90;;;;;;5001665;28;20060;-81
2021/08/02 07:34:46;;;;;;;2.08;1.33;;;20.50;99.90;;;;;;5003720;28;20026;-82
2021/08/02 07:37:13;;;;;;;1.55;1.40;;;20.60;99.90;;;;;;5005843;28;20116;-80
2021/08/02 07:39:38;;;;;;;1.83;1.30;;;20.40;99.90;;;;;;5004823;28;20037;-82
2021/08/02 07:42:05;;;;;;;3.45;1.02;;;20.60;99.90;;;;;;4989243;28;20498;-81
2021/08/02 07:44:32;;;;;;;1.85;1.50;;;20.60;99.90;;;;;;4990570;28;20097;-82
2021/08/02 07:46:57;;;;;;;1.35;1.25;;;20.40;99.90;;;;;;4989556;28;20415;-80
2021/08/02 07:49:23;;;;;;;1.63;1.38;;;20.10;99.90;;;;;;4994541;28;20030;-81
2021/08/02 07:51:49;;;;;;;2.70;1.30;;;19.90;99.90;;;;;;5023862;28;20261;-81
2021/08/02 07:54:14;;;;;;;2.00;1.52;;;19.70;99.90;;;;;;4989484;28;20044;-81
2021/08/02 07:56:40;;;;;;;1.48;1.25;;;19.50;99.90;;;;;;4988443;28;20408;-81
2021/08/02 07:59:06;;;;;;;1.30;1.20;;;19.30;99.90;;;;;;5004777;28;20030;-80
2021/08/02 08:01:32;;;;;;;0.90;0.90;;;19.10;99.90;;;;;;5002392;28;20038;-79
2021/08/02 08:03:58;;;;;;;2.70;1.35;;;19.00;99.90;;;;;;5012719;28;20590;-78
2021/08/02 08:06:24;;;;;;;1.65;1.38;;;19.00;99.90;;;;;;4989568;28;20034;-79
2021/08/02 08:08:49;;;;;;;1.80;1.10;;;19.10;99.90;;;;;;5005834;28;20484;-79
2021/08/02 08:11:15;;;;;;;2.13;1.40;;;19.30;99.90;;;;;;4968839;28;20085;-79
2021/08/02 08:13:41;;;;;;;1.45;1.35;;;19.40;99.90;;;;;;4991236;28;20400;-79
2021/08/02 08:16:07;;;;;;;1.98;1.30;;;19.50;99.90;;;;;;5006232;28;20037;-79
2021/08/02 08:18:33;;;;;;;1.85;1.50;;;19.40;99.90;;;;;;5006983;28;20159;-79
2021/08/02 08:20:59;;;;;;;1.88;1.52;;;19.30;99.90;;;;;;5009402;28;20716;-81
2021/08/02 08:23:31;;;;;;;1.30;1.10;;;19.30;99.90;;;;;;5004613;28;20058;-79
2021/08/02 08:26:01;;;;;;;1.70;1.60;;;19.30;99.90;;;;;;5014385;28;20579;-79
2021/08/02 08:28:27;;;;;;;2.15;1.45;;;19.30;99.90;;;;;;5003037;28;20084;-79
2021/08/02 08:30:53;;;;;;;1.25;1.10;;;19.60;99.90;;;;;;4987090;28;20056;-79
2021/08/02 08:33:19;;;;;;;1.30;1.20;;;19.70;99.90;;;;;;5007807;28;20049;-79
2021/08/02 08:35:45;;;;;;;1.02;1.00;;;19.70;99.90;;;;;;5004669;28;20041;-79
2021/08/02 08:38:11;;;;;;;1.67;1.30;;;19.60;99.90;;;;;;5007387;28;20034;-79
2021/08/02 08:40:37;;;;;;;2.90;1.85;;;19.40;99.90;;;;;;4985339;28;20396;-78
2021/08/02 08:43:05;;;;;;;1.40;1.30;;;19.30;99.90;;;;;;4992247;28;20026;-79
2021/08/02 08:45:31;;;;;;;2.05;1.58;;;19.20;99.90;;;;;;5004774;28;20049;-79
2021/08/02 08:47:57;;;;;;;1.52;1.42;;;19.20;99.90;;;;;;5002935;28;20065;-78
2021/08/02 08:50:24;;;;;;;1.60;1.50;;;19.20;99.90;;;;;;4998472;28;20494;-79
2021/08/02 08:52:54;;;;;;;2.97;1.40;;;19.20;99.90;;;;;;5003825;28;20036;-80
2021/08/02 08:55:20;;;;;;;1.73;1.45;;;19.10;99.90;;;;;;5005108;28;20030;-78
2021/08/02 08:57:46;;;;;;;1.67;1.40;;;19.10;99.90;;;;;;5005997;28;20041;-80
2021/08/02 09:00:26;;;;;;;1.88;1.30;;;19.00;99.90;;;;;;4993175;28;20126;-79
2021/08/02 09:02:53;;;;;;;1.38;1.27;;;19.00;99.90;;;;;;4987300;28;20099;-79
2021/08/02 09:05:19;;;;;;;1.38;1.08;;;19.10;99.90;;;;;;5002903;28;20026;-80
2021/08/02 09:07:46;;;;;;;1.88;1.30;;;19.20;99.90;;;;;;4994871;28;20505;-80
2021/08/02 09:10:18;;;;;;;1.35;1.25;;;19.40;99.90;;;;;;4993552;28;20038;-79
2021/08/02 09:12:59;;;;;;;1.60;1.20;;;19.50;99.90;;;;;;5002032;28;20038;-79
2021/08/02 09:15:42;;;;;;;1.27;1.17;;;19.70;99.90;;;;;;4991011;28;20117;-79
2021/08/02 09:18:28;;;;;;;1.42;1.33;;;19.70;99.90;;;;;;5005880;28;20026;-79
2021/08/02 09:21:01;;;;;;;;;;;19.80;99.90;;;;;;5000491;28;20088;-80
2021/08/02 09:23:27;;;;;;;5.55;1.40;;;19.90;99.90;;;;;;5019591;28;20399;-79
2021/08/02 09:25:55;;;;;;;1.50;1.40;;;20.00;99.90;;;;;;4992348;28;20076;-79
2021/08/02 09:28:24;;;;;;;1.50;1.40;;;20.10;99.90;;;;;;4998793;28;20030;-79
2021/08/02 09:31:04;;;;;;;2.35;1.60;;;20.10;99.90;;;;;;4996846;28;20038;-79
2021/08/02 09:33:45;;;;;;;1.83;1.30;;;20.00;99.90;;;;;;5006704;28;20046;-79
2021/08/02 09:36:12;;;;;;;3.08;1.40;;;19.90;99.90;;;;;;5015696;28;20108;-79
2021/08/02 09:38:38;;;;;;;1.45;1.30;;;19.80;99.90;;;;;;4993554;28;20499;-79
2021/08/02 09:41:03;;;;;;;1.35;1.00;;;19.90;99.90;;;;;;5025133;28;20026;-79
2021/08/02 09:43:31;;;;;;;1.52;1.42;;;20.00;99.90;;;;;;5013221;28;20149;-79
2021/08/02 09:45:59;;;;;;;2.00;1.60;;;19.90;99.90;;;;;;4996106;28;20030;-80
2021/08/02 09:48:42;;;;;;;1.00;0.93;;;19.70;99.90;;;;;;4993828;28;20496;-79
2021/08/02 09:51:12;;;;;;;1.85;1.33;;;19.70;99.90;;;;;;5012230;28;20112;-79
2021/08/02 09:53:44;;;;;;;1.70;1.48;;;19.60;99.90;;;;;;5012128;28;20037;-79
2021/08/02 09:56:18;;;;;;;1.80;1.70;;;19.40;99.90;;;;;;5012364;28;20045;-79
2021/08/02 09:58:46;;;;;;;1.60;1.50;;;19.30;99.90;;;;;;5009697;28;20049;-79
2021/08/02 10:01:13;;;;;;;1.25;1.20;;;19.30;99.90;;;;;;4994603;28;20223;-79
2021/08/02 10:03:39;;;;;;;2.35;2.15;;;19.30;99.90;;;;;;4994928;28;20022;-79
2021/08/02 10:06:05;;;;;;;2.47;1.70;;;19.30;99.90;;;;;;4996422;28;20037;-79
2021/08/02 10:08:34;;;;;;;2.03;1.92;;;19.30;99.90;;;;;;4978325;28;20038;-80
2021/08/02 10:11:00;;;;;;;2.00;1.90;;;19.30;99.90;;;;;;5007897;28;20121;-80
2021/08/02 10:13:28;;;;;;;3.75;2.22;;;19.10;99.90;;;;;;5015664;28;20118;-80
2021/08/02 10:15:57;;;;;;;3.38;1.70;;;18.90;99.90;;;;;;5011872;28;20042;-79
2021/08/02 10:18:25;;;;;;;1.98;1.77;;;18.70;99.90;;;;;;5012505;28;20247;-80
2021/08/02 10:21:05;;;;;;;3.72;1.77;;;18.50;99.90;;;;;;5018845;28;20048;-80
2021/08/02 10:23:31;;;;;;;1.80;1.70;;;18.30;99.90;;;;;;5015438;28;20030;-79
2021/08/02 10:25:57;;;;;;;1.83;1.70;;;18.20;99.90;;;;;;5015535;28;20014;-80
2021/08/02 10:28:23;;;;;;;1.80;1.70;;;18.00;99.90;;;;;;5015292;28;20041;-80
2021/08/02 10:31:04;;;;;;;2.30;1.90;;;17.80;99.90;;;;;;5030360;28;20038;-79
2021/08/02 10:33:37;;;;;;;1.98;1.70;;;17.70;99.90;;;;;;5014110;28;20488;-80
2021/08/02 10:36:14;;;;;;;2.35;2.15;;;17.70;99.90;;;;;;4997785;28;20037;-80
2021/08/02 10:38:49;;;;;;;4.85;1.75;;;17.80;99.90;;;;;;5012633;28;20040;-80
2021/08/02 10:41:29;;;;;;;2.08;1.95;;;18.00;99.90;;;;;;5003147;28;20084;-79
2021/08/02 10:43:56;;;;;;;3.05;2.50;;;18.20;99.90;;;;;;5014165;28;20057;-80
2021/08/02 10:46:24;;;;;;;2.55;2.15;;;18.50;99.90;;;;;;5015101;28;20034;-80
2021/08/02 10:48:52;;;;;;;2.10;2.00;;;18.80;99.90;;;;;;5013355;28;20050;-80
2021/08/02 10:51:23;;;;;;;1.83;1.50;;;19.00;99.90;;;;;;4981404;28;20469;-80
2021/08/02 10:54:03;;;;;;;2.33;1.73;;;19.30;99.90;;;;;;5025401;28;20105;-80
2021/08/02 10:56:30;;;;;;;1.65;1.55;;;19.50;99.90;;;;;;5008944;28;20041;-80
2021/08/02 10:58:57;;;;;;;1.85;1.50;;;19.70;99.90;;;;;;5015050;28;20030;-80
2021/08/02 11:01:27;;;;;;;1.70;1.60;;;19.70;99.90;;;;;;4997927;28;20080;-80
2021/08/02 11:04:08;;;;;;;1.38;1.27;;;19.70;99.90;;;;;;5013183;28;20026;-80
2021/08/02 11:06:35;;;;;;;2.10;1.42;;;19.70;99.90;;;;;;5010214;28;20034;-80
2021/08/02 11:09:01;;;;;;;3.15;1.55;;;19.80;99.90;;;;;;4973381;28;20034;-80
2021/08/02 11:11:32;;;;;;;1.58;1.45;;;20.00;99.90;;;;;;5030224;28;20033;-80
2021/08/02 11:14:13;;;;;;;1.50;1.30;;;20.20;99.90;;;;;;5014919;28;20061;-80
2021/08/02 11:16:52;;;;;;;1.67;1.58;;;20.30;99.90;;;;;;5016201;28;20038;-81
2021/08/02 11:19:23;;;;;;;1.10;1.10;;;20.30;99.90;;;;;;5009722;28;20041;-80
2021/08/02 11:21:55;;;;;;;1.67;1.20;;;20.30;99.90;;;;;;4978663;28;20485;-80
2021/08/02 11:24:21;;;;;;;1.23;1.00;;;20.30;99.90;;;;;;5005078;28;20433;-80
2021/08/02 11:26:56;;;;;;;1.25;1.20;;;20.30;99.90;;;;;;5021419;28;20103;-80
2021/08/02 11:29:28;;;;;;;1.35;1.23;;;20.30;99.90;;;;;;5028586;28;20037;-80
2021/08/02 11:31:55;;;;;;;1.55;1.45;;;20.40;99.90;;;;;;5029503;28;20112;-80
2021/08/02 11:34:22;;;;;;;1.20;1.10;;;20.40;99.90;;;;;;4995722;28;20121;-80
2021/08/02 11:37:07;;;;;;;0.75;0.75;;;20.70;99.90;;;;;;5029009;28;20026;-80
2021/08/02 11:39:43;;;;;;;1.27;1.00;;;20.80;99.90;;;;;;5011955;28;20176;-80
2021/08/02 11:42:15;;;;;;;1.00;0.93;;;21.00;99.90;;;;;;5013940;28;20037;-80
2021/08/02 11:44:48;;;;;;;0.77;0.77;;;21.10;99.90;;;;;;5029148;28;20056;-80
2021/08/02 11:47:21;;;;;;;1.10;1.00;;;21.20;99.90;;;;;;5013143;28;20153;-80
2021/08/02 11:49:48;;;;;;;1.20;1.10;;;21.30;99.90;;;;;;5028673;28;20034;-80
2021/08/02 11:52:15;;;;;;;0.82;0.80;;;21.40;99.90;;;;;;5014126;28;20037;-80
2021/08/02 11:54:41;;;;;;;2.42;1.20;;;21.20;99.90;;;;;;5012759;28;20044;-80
2021/08/02 11:57:20;;;;;;;2.17;1.08;;;21.30;99.90;;;;;;5012544;28;20041;-80
2021/08/02 12:00:19;;;;;;;0.90;0.90;;;21.30;99.90;;;;;;5012916;28;20156;-80
2021/08/02 12:02:50;;;;;;;2.10;1.10;;;21.30;99.90;;;;;;4976585;28;20490;-78
2021/08/02 12:05:23;;;;;;;0.95;0.73;;;21.40;99.90;;;;;;4993142;28;20800;-81
2021/08/02 12:07:49;;;;;;;1.65;0.85;;;21.50;99.90;;;;;;4994034;28;20397;-80
2021/08/02 12:10:18;;;;;;;1.08;1.00;;;21.60;99.90;;;;;;5005682;28;20041;-80
2021/08/02 12:13:04;;;;;;;1.00;0.90;;;21.60;99.90;;;;;;5012803;28;20104;-79
2021/08/02 12:15:31;;;;;;;1.38;1.08;;;21.90;99.90;;;;;;4998923;28;20042;-80
2021/08/02 12:17:57;;;;;;;1.00;0.90;;;22.20;99.90;;;;;;5013407;28;20026;-80
2021/08/02 12:20:34;;;;;;;1.77;0.90;;;22.50;99.90;;;;;;5013747;28;20030;-80
2021/08/02 12:23:05;;;;;;;1.33;1.13;;;22.80;99.90;;;;;;5029217;28;20067;-80
2021/08/02 12:25:46;;;;;;;2.70;0.90;;;23.00;99.90;;;;;;5012822;28;20030;-81
2021/08/02 12:28:13;;;;;;;1.02;0.90;;;23.20;99.90;;;;;;5028473;28;20121;-80
2021/08/02 12:30:41;;;;;;;0.95;0.85;;;23.20;99.90;;;;;;5006260;28;20117;-81
2021/08/02 12:33:08;;;;;;;0.75;0.75;;;23.30;99.90;;;;;;5004595;28;20030;-81
2021/08/02 12:35:35;;;;;;;2.15;1.33;;;23.40;99.90;;;;;;5014772;28;20456;-80
2021/08/02 12:38:02;;;;;;;0.90;0.80;;;23.30;98.70;;;;;;4997076;28;20038;-81
2021/08/02 12:40:29;;;;;;;0.70;0.70;;;23.30;99.90;;;;;;4994571;28;20034;-81
2021/08/02 12:42:55;;;;;;;1.10;1.00;;;23.20;99.90;;;;;;4993764;28;20058;-81
2021/08/02 12:45:21;;;;;;;1.65;1.02;;;23.10;96.80;;;;;;4979414;28;20026;-79
2021/08/02 12:47:48;;;;;;;1.77;0.90;;;22.80;96.30;;;;;;4997100;28;20037;-79
2021/08/02 12:50:17;;;;;;;1.52;0.90;;;22.50;98.20;;;;;;4997568;28;20034;-80
2021/08/02 12:52:44;;;;;;;5.70;0.80;;;22.30;99.90;;;;;;4993509;28;20034;-80
2021/08/02 12:55:12;;;;;;;1.05;0.90;;;22.20;99.90;;;;;;4993929;28;20039;-80
2021/08/02 12:57:40;;;;;;;1.05;0.90;;;21.90;99.90;;;;;;5003474;28;20053;-80
2021/08/02 13:00:11;;;;;;;1.23;0.98;;;21.70;99.90;;;;;;5011476;28;20037;-80